Time;durP1;ratioP1;P1;durP2;ratioP2;P2;SDS_P1;SDS_P2;PMS_P1;PMS_P2;Temp;Humidity;BMP_temperature;BMP_pressure;BME280_temperature;BME280_humidity;BME280_pressure;Samples;Min_cycle;Max_cycle;Signal;HPM_P1;HPM_P2
2022/08/05 00:00:20;;;;;;;12.30;11.10;;;19.20;99.90;;;;;;5066534;28;20558;-67
2022/08/05 00:02:47;;;;;;;12.30;11.27;;;19.20;99.90;;;;;;5056199;28;20543;-68
2022/08/05 00:05:15;;;;;;;12.00;11.00;;;19.10;99.90;;;;;;5063781;28;20558;-69
2022/08/05 00:07:42;;;;;;;11.07;10.37;;;19.10;99.90;;;;;;5059006;28;20463;-68
2022/08/05 00:10:12;;;;;;;13.20;10.80;;;19.20;99.90;;;;;;5063253;28;20462;-69
2022/08/05 00:12:40;;;;;;;11.40;10.20;;;19.10;99.90;;;;;;5061920;28;20481;-68
2022/08/05 00:15:08;;;;;;;10.70;10.00;;;19.10;99.90;;;;;;5061584;28;20514;-68
2022/08/05 00:17:37;;;;;;;14.40;9.63;;;19.10;99.90;;;;;;5065117;28;20467;-68
2022/08/05 00:20:05;;;;;;;12.70;10.40;;;19.10;99.90;;;;;;5063438;28;20854;-69
2022/08/05 00:22:35;;;;;;;11.47;10.13;;;19.10;99.90;;;;;;5062356;28;20463;-67
2022/08/05 00:25:02;;;;;;;10.73;9.83;;;19.10;99.90;;;;;;5059669;28;20459;-68
2022/08/05 00:27:31;;;;;;;10.37;9.47;;;19.00;99.90;;;;;;5062119;28;20558;-68
2022/08/05 00:29:59;;;;;;;11.47;10.30;;;19.00;99.90;;;;;;5061293;28;20470;-68
2022/08/05 00:32:26;;;;;;;10.87;10.07;;;18.90;99.90;;;;;;5062741;28;20514;-68
2022/08/05 00:34:53;;;;;;;12.80;9.63;;;19.00;99.90;;;;;;5065790;28;21050;-68
2022/08/05 00:37:20;;;;;;;11.90;9.90;;;19.00;99.90;;;;;;5061024;28;21133;-68
2022/08/05 00:39:47;;;;;;;10.80;9.13;;;19.10;99.90;;;;;;5061282;28;20816;-69
2022/08/05 00:42:15;;;;;;;9.70;8.87;;;19.00;99.90;;;;;;5061572;28;20473;-67
2022/08/05 00:44:44;;;;;;;11.60;8.53;;;19.00;99.90;;;;;;5060532;28;21036;-69
2022/08/05 00:47:12;;;;;;;10.07;9.10;;;18.90;99.90;;;;;;5063334;28;20498;-67
2022/08/05 00:49:39;;;;;;;11.57;9.00;;;18.80;99.90;;;;;;5061236;28;20513;-69
2022/08/05 00:52:07;;;;;;;11.23;8.60;;;18.70;99.90;;;;;;5062855;28;20455;-68
2022/08/05 00:54:35;;;;;;;12.37;8.57;;;18.70;99.90;;;;;;5061354;28;20559;-68
2022/08/05 00:57:02;;;;;;;9.70;8.70;;;18.70;99.90;;;;;;5060421;28;20472;-68
2022/08/05 00:59:30;;;;;;;9.63;8.73;;;18.70;99.90;;;;;;5063867;28;20459;-67
2022/08/05 01:01:58;;;;;;;9.77;9.07;;;18.60;99.90;;;;;;5062151;28;21013;-68
2022/08/05 01:04:26;;;;;;;10.20;9.17;;;18.60;99.90;;;;;;5056187;28;20470;-68
2022/08/05 01:06:53;;;;;;;10.33;9.43;;;18.60;99.90;;;;;;5054934;28;20463;-67
2022/08/05 01:09:20;;;;;;;11.37;10.17;;;18.50;99.90;;;;;;5063390;28;20465;-68
2022/08/05 01:11:50;;;;;;;10.70;9.60;;;18.50;99.90;;;;;;5052810;28;20969;-68
2022/08/05 01:14:25;;;;;;;18.90;10.10;;;18.50;99.90;;;;;;5061943;28;20487;-68
2022/08/05 01:17:00;;;;;;;11.80;10.60;;;18.50;99.90;;;;;;5065238;28;20492;-68
2022/08/05 01:19:36;;;;;;;11.83;10.80;;;18.40;99.90;;;;;;5063882;28;20771;-68
2022/08/05 01:22:20;;;;;;;13.53;10.80;;;18.40;99.90;;;;;;5059228;28;20470;-67
2022/08/05 01:25:34;;;;;;;11.87;10.00;;;18.40;99.90;;;;;;5048807;28;20573;-67
2022/08/05 01:28:27;;;;;;;15.37;11.03;;;18.30;99.90;;;;;;5052441;28;20467;-68
2022/08/05 01:31:01;;;;;;;13.90;10.50;;;18.30;99.90;;;;;;5065123;28;20952;-68
2022/08/05 01:33:34;;;;;;;12.73;11.17;;;18.20;99.90;;;;;;5061228;28;20494;-68
2022/08/05 01:36:03;;;;;;;13.50;10.50;;;18.20;99.90;;;;;;5060255;28;20564;-69
2022/08/05 01:38:32;;;;;;;13.43;10.73;;;18.30;99.90;;;;;;5058717;28;20931;-67
2022/08/05 01:41:00;;;;;;;11.50;9.43;;;18.40;99.90;;;;;;5063222;28;20463;-68
2022/08/05 01:43:29;;;;;;;10.13;9.10;;;18.40;99.90;;;;;;5063465;28;20470;-67
2022/08/05 01:45:57;;;;;;;10.60;8.60;;;18.40;99.90;;;;;;5062862;28;20479;-68
2022/08/05 01:48:25;;;;;;;12.97;8.30;;;18.40;99.90;;;;;;5059341;28;20470;-68
2022/08/05 01:50:53;;;;;;;19.83;10.47;;;18.50;99.90;;;;;;5062984;28;20455;-67
2022/08/05 01:53:22;;;;;;;30.53;13.77;;;18.50;99.90;;;;;;5060034;28;20489;-67
2022/08/05 01:55:51;;;;;;;21.70;19.97;;;18.60;99.90;;;;;;5058368;28;20521;-66
2022/08/05 01:58:21;;;;;;;25.07;23.07;;;18.50;99.90;;;;;;5063769;28;20542;-68
2022/08/05 02:00:51;;;;;;;25.73;23.77;;;18.40;99.90;;;;;;5062497;28;20462;-66
2022/08/05 02:03:23;;;;;;;27.73;25.13;;;18.40;99.90;;;;;;5060945;28;20472;-67
2022/08/05 02:05:52;;;;;;;28.33;25.30;;;18.40;99.90;;;;;;5061745;28;20528;-67
2022/08/05 02:08:19;;;;;;;29.60;26.20;;;18.30;99.90;;;;;;5063288;28;20919;-69
2022/08/05 02:10:59;;;;;;;27.37;25.17;;;18.20;99.90;;;;;;5066134;28;20464;-67
2022/08/05 02:13:30;;;;;;;26.20;24.20;;;18.10;99.90;;;;;;5056958;28;20508;-67
2022/08/05 02:16:04;;;;;;;26.43;24.23;;;18.10;99.90;;;;;;5064095;28;20490;-67
2022/08/05 02:18:48;;;;;;;25.60;23.30;;;18.00;99.90;;;;;;5061800;28;20463;-67
2022/08/05 02:21:18;;;;;;;24.67;22.53;;;17.90;99.90;;;;;;5057891;28;20461;-67
2022/08/05 02:23:50;;;;;;;28.23;23.70;;;17.90;99.90;;;;;;5055546;28;20470;-68
2022/08/05 02:26:23;;;;;;;25.90;23.60;;;17.90;99.90;;;;;;5055706;28;20454;-68
2022/08/05 02:28:51;;;;;;;24.70;22.53;;;17.90;99.90;;;;;;5059208;28;20470;-67
2022/08/05 02:31:26;;;;;;;37.40;25.60;;;17.90;99.90;;;;;;5058310;28;20464;-68
2022/08/05 02:33:58;;;;;;;25.40;23.27;;;18.00;99.90;;;;;;5049945;28;20481;-67
2022/08/05 02:36:26;;;;;;;25.13;23.13;;;18.10;99.90;;;;;;5057675;28;20604;-67
2022/08/05 02:38:55;;;;;;;25.50;23.60;;;18.10;99.90;;;;;;5064123;28;20463;-67
2022/08/05 02:41:26;;;;;;;26.90;24.10;;;18.10;99.90;;;;;;5061953;28;20564;-67
2022/08/05 02:43:55;;;;;;;24.40;22.40;;;18.00;99.90;;;;;;5060308;28;20471;-66
2022/08/05 02:46:26;;;;;;;24.87;23.17;;;18.00;99.90;;;;;;5056514;28;20514;-68
2022/08/05 02:48:53;;;;;;;23.70;21.73;;;17.90;99.90;;;;;;5058775;28;20448;-68
2022/08/05 02:51:21;;;;;;;23.80;21.40;;;17.90;99.90;;;;;;5062060;28;21125;-67
2022/08/05 02:53:49;;;;;;;24.37;22.30;;;17.90;99.90;;;;;;5059676;28;20852;-67
2022/08/05 02:56:17;;;;;;;24.03;21.90;;;17.90;99.90;;;;;;5057964;28;20467;-68
2022/08/05 02:58:44;;;;;;;24.40;22.23;;;17.90;99.90;;;;;;5063989;28;20988;-67
2022/08/05 03:01:20;;;;;;;24.20;22.20;;;17.90;99.90;;;;;;5058929;28;20997;-67
2022/08/05 03:03:52;;;;;;;22.57;20.47;;;17.90;99.90;;;;;;5057785;28;20461;-67
2022/08/05 03:06:21;;;;;;;23.33;21.20;;;17.90;99.90;;;;;;5058839;28;20463;-67
2022/08/05 03:08:50;;;;;;;24.00;22.07;;;18.00;99.90;;;;;;5053030;28;20474;-67
2022/08/05 03:11:18;;;;;;;25.00;22.60;;;18.00;99.90;;;;;;5060144;28;20455;-67
2022/08/05 03:13:45;;;;;;;25.20;22.90;;;18.10;99.90;;;;;;5055439;28;21071;-68
2022/08/05 03:16:13;;;;;;;23.90;21.83;;;18.10;99.90;;;;;;5058940;28;20493;-68
2022/08/05 03:18:40;;;;;;;26.57;23.83;;;18.00;99.90;;;;;;5053632;28;20542;-69
2022/08/05 03:21:09;;;;;;;25.47;23.10;;;18.00;99.90;;;;;;5059634;28;20452;-70
2022/08/05 03:23:38;;;;;;;24.20;22.20;;;18.10;99.90;;;;;;5058976;28;20494;-68
2022/08/05 03:26:06;;;;;;;24.80;22.60;;;18.20;99.90;;;;;;5059341;28;20451;-67
2022/08/05 03:28:33;;;;;;;24.70;22.50;;;18.20;99.90;;;;;;5054238;28;21014;-68
2022/08/05 03:31:03;;;;;;;26.93;22.77;;;18.30;99.90;;;;;;5057786;28;20541;-67
2022/08/05 03:33:31;;;;;;;25.20;22.80;;;18.30;99.90;;;;;;5062529;28;20896;-67
2022/08/05 03:35:59;;;;;;;23.33;21.43;;;18.40;99.90;;;;;;5065965;28;20502;-68
2022/08/05 03:38:28;;;;;;;26.20;22.03;;;18.50;99.90;;;;;;5063609;28;20459;-69
2022/08/05 03:40:55;;;;;;;24.30;22.20;;;18.40;99.90;;;;;;5062901;28;20485;-68
2022/08/05 03:43:24;;;;;;;25.00;22.40;;;18.40;99.90;;;;;;5061532;28;20520;-69
2022/08/05 03:45:54;;;;;;;24.93;22.80;;;18.50;99.90;;;;;;5061246;28;20883;-67
2022/08/05 03:48:22;;;;;;;25.40;23.00;;;18.50;99.90;;;;;;5062758;28;20858;-67
2022/08/05 03:50:55;;;;;;;26.80;24.43;;;18.40;99.90;;;;;;5057403;28;20458;-67
2022/08/05 03:53:31;;;;;;;26.57;24.00;;;18.40;99.90;;;;;;5065048;28;20482;-68
2022/08/05 03:56:04;;;;;;;26.87;24.57;;;18.50;99.90;;;;;;5062803;28;20498;-67
2022/08/05 03:58:35;;;;;;;27.93;25.20;;;18.60;99.90;;;;;;5067428;28;20454;-69
2022/08/05 04:01:04;;;;;;;28.57;25.70;;;18.40;99.90;;;;;;5057103;28;21013;-68
2022/08/05 04:03:34;;;;;;;28.50;25.60;;;18.40;99.90;;;;;;5036484;28;20463;-66
2022/08/05 04:06:01;;;;;;;28.57;25.87;;;18.40;99.90;;;;;;5038532;28;20806;-67
2022/08/05 04:08:31;;;;;;;28.87;26.07;;;18.30;99.90;;;;;;5038577;28;20462;-68
2022/08/05 04:10:58;;;;;;;29.73;26.83;;;18.30;99.90;;;;;;5038282;28;20474;-67
2022/08/05 04:13:26;;;;;;;31.60;26.87;;;18.30;99.90;;;;;;5036251;28;20470;-67
2022/08/05 04:15:53;;;;;;;30.00;27.23;;;18.20;99.90;;;;;;5037143;28;20509;-67
2022/08/05 04:18:23;;;;;;;33.27;30.13;;;18.30;99.90;;;;;;5037460;28;20459;-69
2022/08/05 04:20:54;;;;;;;31.23;28.47;;;18.30;99.90;;;;;;5037733;28;20474;-66
2022/08/05 04:23:23;;;;;;;31.97;28.97;;;18.30;99.90;;;;;;5038256;28;20486;-69
2022/08/05 04:25:52;;;;;;;34.63;29.90;;;18.30;99.90;;;;;;5036037;28;20561;-68
2022/08/05 04:28:19;;;;;;;33.80;30.30;;;18.30;99.90;;;;;;5036327;28;20796;-70
2022/08/05 04:30:46;;;;;;;36.93;33.13;;;18.30;99.90;;;;;;5035769;28;20578;-69
2022/08/05 04:33:13;;;;;;;35.60;32.00;;;18.30;99.90;;;;;;5037394;28;20463;-66
2022/08/05 04:35:40;;;;;;;36.17;32.57;;;18.40;99.90;;;;;;5039143;28;20490;-68
2022/08/05 04:38:07;;;;;;;35.50;32.07;;;18.40;99.90;;;;;;5036755;28;20469;-68
2022/08/05 04:40:35;;;;;;;35.80;32.03;;;18.50;99.90;;;;;;5037855;28;20466;-67
2022/08/05 04:43:04;;;;;;;41.20;33.00;;;18.40;99.90;;;;;;5037344;28;21107;-68
2022/08/05 04:45:31;;;;;;;38.37;34.50;;;18.40;99.90;;;;;;5035240;28;20483;-66
2022/08/05 04:48:04;;;;;;;39.87;35.60;;;18.40;99.90;;;;;;5036153;28;20463;-68
2022/08/05 04:50:31;;;;;;;39.03;35.00;;;18.50;99.90;;;;;;5036930;28;20463;-67
2022/08/05 04:52:58;;;;;;;36.97;33.53;;;18.60;99.90;;;;;;5038122;28;20463;-69
2022/08/05 04:55:25;;;;;;;37.60;33.80;;;18.50;99.90;;;;;;5040092;28;20494;-67
2022/08/05 04:57:53;;;;;;;39.53;33.70;;;18.50;99.90;;;;;;5061319;28;20452;-68
2022/08/05 05:00:21;;;;;;;38.80;33.77;;;18.50;99.90;;;;;;5040307;28;20593;-68
2022/08/05 05:02:48;;;;;;;37.87;33.83;;;18.50;99.90;;;;;;5034094;28;20469;-68
2022/08/05 05:05:14;;;;;;;38.70;35.10;;;18.50;99.90;;;;;;5034494;28;20471;-69
2022/08/05 05:07:41;;;;;;;38.53;33.90;;;18.50;99.90;;;;;;5035060;28;20566;-67
2022/08/05 05:10:08;;;;;;;41.10;36.80;;;18.50;99.90;;;;;;5033781;28;20783;-68
2022/08/05 05:12:35;;;;;;;41.77;37.27;;;18.50;99.90;;;;;;5034417;28;21129;-67
2022/08/05 05:15:02;;;;;;;40.90;36.80;;;18.50;99.90;;;;;;5028435;28;20500;-66
2022/08/05 05:17:37;;;;;;;41.33;37.00;;;18.60;99.90;;;;;;4992854;28;20473;-67
2022/08/05 05:20:05;;;;;;;39.97;35.77;;;18.60;99.90;;;;;;5014739;28;20490;-68
2022/08/05 05:22:32;;;;;;;39.60;35.37;;;18.60;99.90;;;;;;5015151;28;20818;-68
2022/08/05 05:24:59;;;;;;;40.47;36.47;;;18.70;99.90;;;;;;5015669;28;20506;-68
2022/08/05 05:27:26;;;;;;;42.07;37.17;;;18.70;99.90;;;;;;5011049;28;21239;-67
2022/08/05 05:29:53;;;;;;;41.43;37.03;;;18.70;99.90;;;;;;5014353;28;20994;-69
2022/08/05 05:32:20;;;;;;;40.20;34.23;;;18.60;99.90;;;;;;5013568;28;20480;-69
2022/08/05 05:34:48;;;;;;;40.07;35.87;;;18.60;99.90;;;;;;5011465;28;20496;-68
2022/08/05 05:37:15;;;;;;;40.30;33.60;;;18.50;99.90;;;;;;5017637;28;20460;-68
2022/08/05 05:39:43;;;;;;;40.30;35.30;;;18.40;99.90;;;;;;5015097;28;20556;-67
2022/08/05 05:42:10;;;;;;;40.33;35.53;;;18.30;99.90;;;;;;5014202;28;20479;-67
2022/08/05 05:44:37;;;;;;;37.33;33.33;;;18.30;99.90;;;;;;5015176;28;20489;-67
2022/08/05 05:47:04;;;;;;;38.33;32.97;;;18.30;99.90;;;;;;5015007;28;20602;-68
2022/08/05 05:49:31;;;;;;;39.20;34.90;;;18.30;99.90;;;;;;5011796;28;21728;-68
2022/08/05 05:51:59;;;;;;;45.03;36.73;;;18.20;99.90;;;;;;5015275;28;21037;-67
2022/08/05 05:54:26;;;;;;;44.30;34.10;;;18.30;99.90;;;;;;5015017;28;20492;-67
2022/08/05 05:56:53;;;;;;;37.70;33.60;;;18.30;99.90;;;;;;5014514;28;21545;-68
2022/08/05 05:59:20;;;;;;;41.00;34.87;;;18.30;99.90;;;;;;5015062;28;20490;-67
2022/08/05 06:01:47;;;;;;;35.33;31.93;;;18.30;99.90;;;;;;5018130;28;20464;-68
2022/08/05 06:04:14;;;;;;;38.40;32.00;;;18.30;99.90;;;;;;5029313;28;20504;-67
2022/08/05 06:06:42;;;;;;;35.90;32.07;;;18.30;99.90;;;;;;5035897;28;20480;-68
2022/08/05 06:09:11;;;;;;;36.10;32.00;;;18.30;99.90;;;;;;5022095;28;20499;-68
2022/08/05 06:11:38;;;;;;;35.13;31.40;;;18.30;99.90;;;;;;5009201;28;20609;-68
2022/08/05 06:14:05;;;;;;;38.30;30.57;;;18.30;99.90;;;;;;5012357;28;20472;-67
2022/08/05 06:16:32;;;;;;;39.40;30.40;;;18.20;99.90;;;;;;5012849;28;21064;-68
2022/08/05 06:18:58;;;;;;;34.80;28.90;;;18.10;99.90;;;;;;5011358;28;20663;-66
2022/08/05 06:21:25;;;;;;;40.57;29.30;;;18.00;99.90;;;;;;5011034;28;20565;-67
2022/08/05 06:23:52;;;;;;;32.53;27.13;;;17.90;99.90;;;;;;5011387;28;20560;-68
2022/08/05 06:26:20;;;;;;;30.67;23.47;;;17.80;99.90;;;;;;5012386;28;20474;-67
2022/08/05 06:28:47;;;;;;;26.97;23.20;;;17.70;99.90;;;;;;5010818;28;20470;-67
2022/08/05 06:31:14;;;;;;;26.57;21.83;;;17.70;99.90;;;;;;5012084;28;20463;-68
2022/08/05 06:33:41;;;;;;;28.27;20.47;;;17.60;99.90;;;;;;5020029;28;20687;-68
2022/08/05 06:36:08;;;;;;;24.83;21.03;;;17.50;99.90;;;;;;5033236;28;21326;-67
2022/08/05 06:38:35;;;;;;;30.10;20.87;;;17.60;99.90;;;;;;5033649;28;20471;-66
2022/08/05 06:41:02;;;;;;;21.23;17.97;;;17.50;99.90;;;;;;5009827;28;20472;-67
2022/08/05 06:43:31;;;;;;;22.23;17.80;;;17.50;99.90;;;;;;5009823;28;20456;-67
2022/08/05 06:45:58;;;;;;;26.83;20.63;;;17.60;99.90;;;;;;5013095;28;20687;-68
2022/08/05 06:48:25;;;;;;;28.67;18.27;;;17.70;99.90;;;;;;5012330;28;20841;-68
2022/08/05 06:50:52;;;;;;;22.67;16.10;;;17.70;99.90;;;;;;5011865;28;20463;-68
2022/08/05 06:53:18;;;;;;;19.07;16.77;;;17.70;99.90;;;;;;5011301;28;20480;-67
2022/08/05 06:55:45;;;;;;;22.50;16.20;;;17.80;99.90;;;;;;5012979;28;20490;-66
2022/08/05 06:58:12;;;;;;;18.43;16.03;;;17.90;99.90;;;;;;5012505;28;20460;-68
2022/08/05 07:00:41;;;;;;;19.43;13.90;;;17.90;99.90;;;;;;5011763;28;20500;-68
2022/08/05 07:03:07;;;;;;;22.37;14.90;;;17.90;99.90;;;;;;5010287;28;20481;-68
2022/08/05 07:05:34;;;;;;;15.93;14.17;;;17.80;99.90;;;;;;5010752;28;20463;-68
2022/08/05 07:08:01;;;;;;;20.77;15.57;;;17.80;99.90;;;;;;5015368;28;21207;-67
2022/08/05 07:10:28;;;;;;;17.37;13.60;;;17.80;99.90;;;;;;5016558;28;20506;-67
2022/08/05 07:18:26;;;;;;;22.37;14.57;;;17.70;99.90;;;;;;5017939;28;20467;-67
2022/08/05 07:20:53;;;;;;;16.47;12.77;;;17.70;99.90;;;;;;5018399;28;21374;-67
2022/08/05 07:23:21;;;;;;;13.00;11.57;;;17.70;99.90;;;;;;5017915;28;20931;-68
2022/08/05 07:25:48;;;;;;;14.17;12.77;;;17.70;99.90;;;;;;5017760;28;21111;-68
2022/08/05 07:28:15;;;;;;;14.53;11.33;;;17.60;99.90;;;;;;5014936;28;20459;-68
2022/08/05 07:30:43;;;;;;;15.57;12.53;;;17.60;99.90;;;;;;5017261;28;20494;-68
2022/08/05 07:33:11;;;;;;;14.87;11.90;;;17.60;99.90;;;;;;5016059;28;22490;-68
2022/08/05 07:35:38;;;;;;;17.03;11.93;;;17.60;99.90;;;;;;5017069;28;20491;-67
2022/08/05 07:38:05;;;;;;;15.93;12.53;;;17.60;99.90;;;;;;5017300;28;20482;-68
2022/08/05 07:40:33;;;;;;;18.23;11.60;;;17.50;99.90;;;;;;5017219;28;21182;-68
2022/08/05 07:42:59;;;;;;;15.70;11.10;;;17.60;99.90;;;;;;5017476;28;20463;-68
2022/08/05 07:45:26;;;;;;;20.83;10.10;;;17.60;99.90;;;;;;5016699;28;21070;-68
2022/08/05 07:47:54;;;;;;;13.60;10.40;;;17.60;99.90;;;;;;5016923;28;20457;-67
2022/08/05 07:50:21;;;;;;;11.10;10.10;;;17.70;99.90;;;;;;5017137;28;20840;-67
2022/08/05 07:52:48;;;;;;;15.90;9.80;;;17.70;99.90;;;;;;5016819;28;20465;-67
2022/08/05 07:55:15;;;;;;;11.70;10.70;;;17.60;99.90;;;;;;5017109;28;20588;-68
2022/08/05 07:57:42;;;;;;;13.63;10.17;;;17.60;99.90;;;;;;5016234;28;20469;-68
2022/08/05 08:00:13;;;;;;;11.90;10.73;;;17.60;99.90;;;;;;5017371;28;20903;-68
2022/08/05 08:02:40;;;;;;;11.70;10.60;;;17.50;99.90;;;;;;5013803;28;20459;-68
2022/08/05 08:05:08;;;;;;;12.30;10.57;;;17.50;99.90;;;;;;5016139;28;20463;-68
2022/08/05 08:07:35;;;;;;;13.37;10.00;;;17.50;99.90;;;;;;5015870;28;20612;-68
2022/08/05 08:10:02;;;;;;;12.90;9.90;;;17.60;99.90;;;;;;5017542;28;21271;-69
2022/08/05 08:12:29;;;;;;;12.50;9.87;;;17.60;99.90;;;;;;5009048;28;20506;-69
2022/08/05 08:14:56;;;;;;;14.60;9.93;;;17.80;99.90;;;;;;5014961;28;21692;-68
2022/08/05 08:17:23;;;;;;;9.80;8.60;;;17.80;99.90;;;;;;5015507;28;20474;-69
2022/08/05 08:19:51;;;;;;;11.97;10.13;;;17.90;99.90;;;;;;5014952;28;20491;-68
2022/08/05 08:22:26;;;;;;;10.73;9.70;;;18.00;99.90;;;;;;5015431;28;20614;-68
2022/08/05 08:24:53;;;;;;;10.27;9.47;;;18.00;99.90;;;;;;5015632;28;20471;-68
2022/08/05 08:27:20;;;;;;;11.97;10.73;;;18.10;99.90;;;;;;5025639;28;20473;-70
2022/08/05 08:29:47;;;;;;;12.87;9.47;;;18.10;99.90;;;;;;5044454;28;20470;-69
2022/08/05 08:32:14;;;;;;;9.10;8.30;;;17.90;99.90;;;;;;5035356;28;20464;-68
2022/08/05 08:34:42;;;;;;;9.83;9.00;;;17.90;99.90;;;;;;5015553;28;20457;-68
2022/08/05 08:37:09;;;;;;;11.27;9.20;;;17.90;99.90;;;;;;5015889;28;21221;-69
2022/08/05 08:39:37;;;;;;;18.87;8.57;;;18.00;99.90;;;;;;5016258;28;20810;-68
2022/08/05 08:42:05;;;;;;;9.57;8.67;;;18.10;99.90;;;;;;5016095;28;22406;-69
2022/08/05 08:44:33;;;;;;;10.70;9.60;;;18.20;99.90;;;;;;5015837;28;21011;-68
2022/08/05 08:47:02;;;;;;;11.13;9.53;;;18.30;99.90;;;;;;5015790;28;20472;-69
2022/08/05 08:49:33;;;;;;;13.77;11.00;;;18.40;99.90;;;;;;5016413;28;20460;-68
2022/08/05 08:52:08;;;;;;;13.50;11.30;;;18.60;99.90;;;;;;5015333;28;20468;-68
2022/08/05 08:54:37;;;;;;;12.00;10.80;;;18.50;99.90;;;;;;5014513;28;20560;-68
2022/08/05 08:57:06;;;;;;;11.53;10.63;;;18.50;99.90;;;;;;5014146;28;20881;-69
2022/08/05 08:59:33;;;;;;;10.80;10.00;;;18.50;99.90;;;;;;5014682;28;20456;-69
2022/08/05 09:02:01;;;;;;;16.07;10.53;;;18.40;99.90;;;;;;5029680;28;20567;-67
2022/08/05 09:04:28;;;;;;;13.70;10.93;;;18.40;99.90;;;;;;5041030;28;20468;-68
2022/08/05 09:06:55;;;;;;;11.83;10.70;;;18.70;99.90;;;;;;5020638;28;20467;-68
2022/08/05 09:09:22;;;;;;;11.20;10.27;;;19.00;99.90;;;;;;5013440;28;20986;-68
2022/08/05 09:11:50;;;;;;;11.57;10.57;;;19.40;99.90;;;;;;5013409;28;20998;-68
2022/08/05 09:14:17;;;;;;;11.83;10.83;;;19.50;99.90;;;;;;5015085;28;20464;-68
2022/08/05 09:16:44;;;;;;;11.90;10.93;;;19.50;99.90;;;;;;5013007;28;20510;-67
2022/08/05 09:19:12;;;;;;;12.13;11.23;;;19.50;99.90;;;;;;5013812;28;21018;-68
2022/08/05 09:21:38;;;;;;;12.30;11.20;;;19.40;99.90;;;;;;5013354;28;20464;-69
2022/08/05 09:24:08;;;;;;;12.47;11.20;;;19.30;99.90;;;;;;5014195;28;20464;-69
2022/08/05 09:26:35;;;;;;;12.13;11.27;;;19.20;99.90;;;;;;5013590;28;20518;-69
2022/08/05 09:29:06;;;;;;;12.50;11.50;;;19.10;99.90;;;;;;5014751;28;21209;-68
2022/08/05 09:31:34;;;;;;;13.00;11.90;;;19.20;99.90;;;;;;5013405;28;20501;-68
2022/08/05 09:34:02;;;;;;;12.70;11.60;;;19.20;99.90;;;;;;5015871;28;20471;-68
2022/08/05 09:36:41;;;;;;;12.60;11.60;;;19.10;99.90;;;;;;5006042;28;20843;-67
2022/08/05 09:39:10;;;;;;;12.20;11.40;;;19.10;99.90;;;;;;5014583;28;20455;-68
2022/08/05 09:41:56;;;;;;;13.10;11.80;;;19.30;99.90;;;;;;5015031;28;20467;-68
2022/08/05 09:44:40;;;;;;;14.70;11.60;;;19.30;99.90;;;;;;5014601;28;20582;-68
2022/08/05 09:47:09;;;;;;;12.33;11.37;;;19.50;99.90;;;;;;5014353;28;20555;-68
2022/08/05 09:49:39;;;;;;;13.33;12.23;;;19.70;99.90;;;;;;5015031;28;20506;-68
2022/08/05 09:52:20;;;;;;;13.27;12.27;;;20.10;99.90;;;;;;5014700;28;20455;-68
2022/08/05 09:54:59;;;;;;;14.93;13.70;;;20.70;99.90;;;;;;5015145;28;20469;-68
2022/08/05 09:57:31;;;;;;;15.33;14.27;;;21.20;99.90;;;;;;5006265;28;20487;-67
2022/08/05 10:00:01;;;;;;;16.20;15.07;;;21.30;99.90;;;;;;5015277;28;20768;-69
2022/08/05 10:02:32;;;;;;;15.53;14.43;;;21.30;99.90;;;;;;5014553;28;20472;-69
2022/08/05 10:05:05;;;;;;;16.30;14.90;;;21.20;99.90;;;;;;5014812;28;20575;-66
2022/08/05 10:07:53;;;;;;;14.43;13.53;;;21.00;99.90;;;;;;5014789;28;20461;-68
2022/08/05 10:10:24;;;;;;;15.50;14.40;;;21.20;99.90;;;;;;5010298;28;20460;-69
2022/08/05 10:12:52;;;;;;;15.53;14.30;;;21.40;99.90;;;;;;5014521;28;20468;-69
2022/08/05 10:15:24;;;;;;;16.27;15.30;;;21.50;99.90;;;;;;5014991;28;20496;-68
2022/08/05 10:18:12;;;;;;;16.90;15.50;;;21.70;99.90;;;;;;5014715;28;21180;-69
2022/08/05 10:20:42;;;;;;;15.67;14.57;;;22.30;99.90;;;;;;5008476;28;20468;-68
2022/08/05 10:23:11;;;;;;;15.40;14.50;;;22.40;99.90;;;;;;5013586;28;20577;-70
2022/08/05 10:25:38;;;;;;;17.77;16.43;;;23.20;99.90;;;;;;5013254;28;20876;-68
2022/08/05 10:28:06;;;;;;;15.30;14.40;;;24.00;99.90;;;;;;5015189;28;20554;-69
2022/08/05 10:30:35;;;;;;;15.70;14.80;;;24.30;99.90;;;;;;5012603;28;20837;-69
2022/08/05 10:33:04;;;;;;;16.27;15.37;;;24.70;99.90;;;;;;5012370;28;20460;-70
2022/08/05 10:35:31;;;;;;;17.17;16.03;;;24.40;99.90;;;;;;5012125;28;22072;-69
2022/08/05 10:38:00;;;;;;;16.63;15.60;;;23.70;99.90;;;;;;5012367;28;21018;-69
2022/08/05 10:40:36;;;;;;;17.50;16.30;;;23.20;99.90;;;;;;5010741;28;20463;-69
2022/08/05 10:43:12;;;;;;;16.80;15.37;;;22.80;99.90;;;;;;5011673;28;20469;-68
2022/08/05 10:45:41;;;;;;;15.93;15.03;;;23.00;99.90;;;;;;5012937;28;20488;-71
2022/08/05 10:48:29;;;;;;;16.80;15.70;;;23.30;99.90;;;;;;5014130;28;21054;-70
2022/08/05 10:51:05;;;;;;;16.50;15.23;;;23.60;99.90;;;;;;5013410;28;20618;-69
2022/08/05 10:53:55;;;;;;;15.90;14.70;;;23.40;99.90;;;;;;5011966;28;20459;-69
2022/08/05 10:56:24;;;;;;;16.40;15.50;;;23.60;99.90;;;;;;5004938;28;20491;-71
2022/08/05 10:59:04;;;;;;;17.17;16.10;;;24.70;99.90;;;;;;5013422;28;20538;-70
2022/08/05 11:01:35;;;;;;;17.33;16.33;;;26.50;99.90;;;;;;5013830;28;20464;-69
2022/08/05 11:04:04;;;;;;;17.90;16.80;;;27.70;99.90;;;;;;5013654;28;20982;-69
2022/08/05 11:06:32;;;;;;;17.23;16.20;;;27.80;99.90;;;;;;5014020;28;20465;-68
2022/08/05 11:09:22;;;;;;;18.13;17.03;;;28.30;99.90;;;;;;5013950;28;20473;-69
2022/08/05 11:11:51;;;;;;;18.77;17.43;;;28.20;99.90;;;;;;5014154;28;20468;-69
2022/08/05 11:14:30;;;;;;;18.10;16.70;;;28.30;99.90;;;;;;5013964;28;22963;-68
2022/08/05 11:17:27;;;;;;;17.30;16.10;;;27.40;99.90;;;;;;5025433;28;20495;-68
2022/08/05 11:19:58;;;;;;;18.63;17.47;;;27.20;99.90;;;;;;5040884;28;20475;-68
2022/08/05 11:22:42;;;;;;;18.30;16.83;;;26.90;99.90;;;;;;5045921;28;20456;-68
2022/08/05 11:25:29;;;;;;;19.73;18.43;;;26.50;99.90;;;;;;5023812;28;20452;-69
2022/08/05 11:27:56;;;;;;;18.00;16.67;;;26.30;99.90;;;;;;5011697;28;21405;-68
2022/08/05 11:30:23;;;;;;;17.67;16.60;;;26.30;99.90;;;;;;5011740;28;21564;-69
2022/08/05 11:33:27;;;;;;;17.13;15.93;;;26.00;99.90;;;;;;5013997;28;20472;-68
2022/08/05 11:35:55;;;;;;;16.90;16.00;;;25.40;99.90;;;;;;5012971;28;20487;-68
2022/08/05 11:38:53;;;;;;;16.63;15.63;;;25.10;99.90;;;;;;5013224;28;20459;-68
2022/08/05 11:41:23;;;;;;;17.90;16.70;;;25.50;99.90;;;;;;5012947;28;20456;-67
2022/08/05 11:44:00;;;;;;;17.70;16.40;;;25.40;99.90;;;;;;5012296;28;20490;-67
2022/08/05 11:46:27;;;;;;;18.47;17.13;;;24.80;99.90;;;;;;5011835;28;20493;-68
2022/08/05 11:48:56;;;;;;;16.77;15.63;;;24.70;99.90;;;;;;5011229;28;20556;-69
2022/08/05 11:51:25;;;;;;;17.40;16.20;;;24.90;99.90;;;;;;5012279;28;20502;-69
2022/08/05 11:53:53;;;;;;;17.63;16.40;;;25.00;99.90;;;;;;5013532;28;20471;-70
2022/08/05 11:56:20;;;;;;;17.93;16.40;;;25.90;99.90;;;;;;5016362;28;20487;-70
2022/08/05 11:58:48;;;;;;;17.53;16.23;;;27.10;99.90;;;;;;5016882;28;21013;-67
2022/08/05 12:01:17;;;;;;;17.70;16.60;;;27.60;99.90;;;;;;5024104;28;20468;-68
2022/08/05 12:03:48;;;;;;;18.93;17.90;;;28.80;99.90;;;;;;5044177;28;20468;-68
2022/08/05 12:06:17;;;;;;;19.10;17.50;;;29.50;99.90;;;;;;5042792;28;20471;-68
2022/08/05 12:08:46;;;;;;;17.93;16.87;;;29.20;99.90;;;;;;5026749;28;22449;-69
2022/08/05 12:11:18;;;;;;;18.77;17.17;;;28.20;99.50;;;;;;5010993;28;20469;-68
2022/08/05 12:13:53;;;;;;;18.23;17.33;;;27.10;99.90;;;;;;5014970;28;20471;-69
2022/08/05 12:16:21;;;;;;;16.80;15.80;;;27.10;99.90;;;;;;5016361;28;20487;-68
2022/08/05 12:18:48;;;;;;;17.20;16.10;;;27.30;99.90;;;;;;5017003;28;20468;-69
2022/08/05 12:21:18;;;;;;;17.63;16.53;;;27.80;99.90;;;;;;5015998;28;20464;-69
2022/08/05 12:23:53;;;;;;;18.80;17.30;;;28.00;99.90;;;;;;5014825;28;20510;-69
2022/08/05 12:26:20;;;;;;;18.17;17.07;;;29.20;99.40;;;;;;5025073;28;20463;-69
2022/08/05 12:28:47;;;;;;;18.60;17.30;;;29.00;98.20;;;;;;5044030;28;20993;-70
2022/08/05 12:31:16;;;;;;;19.10;17.90;;;29.20;98.00;;;;;;5046898;28;20574;-69
2022/08/05 12:33:44;;;;;;;18.00;17.03;;;29.90;96.20;;;;;;5037546;28;20590;-70
2022/08/05 12:36:13;;;;;;;16.80;15.80;;;30.20;94.40;;;;;;5016584;28;20881;-69
2022/08/05 12:38:41;;;;;;;17.03;15.93;;;30.60;93.60;;;;;;5016391;28;20463;-71
2022/08/05 12:41:09;;;;;;;17.40;16.53;;;30.40;93.70;;;;;;5016298;28;21050;-70
2022/08/05 12:43:51;;;;;;;18.87;17.47;;;30.90;91.80;;;;;;5016536;28;20468;-71
2022/08/05 12:46:23;;;;;;;18.70;17.40;;;31.00;90.40;;;;;;5016136;28;21168;-71